»·PEaware :: TPX426 KLAS-KLAX

TPX426 :: KLAS-KLAX

FLIGHT INFORMATION

Flight Status: Arrived
Operator: ATP Experience
More flights by this operator :: More flights under this callsign
Pilot: Ben F. (2808)
Aircraft: BOEING 737-700
(B737)
More flights by this aircraft type
Origin: KLAS McCarran Intl
United States
Destination: KLAX Los Angeles Intl
United States
More flights between these airports :: More routes between these airports
Route: +BOACH8 RIKII SHTNR ANJLL2
File this flight plan on PilotEdge
Remarks:
Altitude:
(Current/Filed)
28,000ft
Speed:
(Current/Filed)
467kts
Departed: 12-May-18 10:42 AM
Arrived: 12-May-18 11:26 AM
Distance/Time
Traveled:
205nm/0:44
Distance/Time
To Go:
Arrived

Flight Plot

Page will automatically refresh every two minutes.

Flight plan parsing failed; only flown route is shown


Map Options




Map Legend


Flown Route
Filed Route
Departure Airport
Arrival Airport
Navaid (VOR, NDB)
Fix

Horizontal Profiles

Position Reports

Time Latitude Longitude Heading Altitude Ground
Speed
12-May-18 10:24 36.081111 -115.138189 312 2188ft 0kts
12-May-18 10:25 36.081111 -115.138189 312 2188ft 0kts
12-May-18 10:26 36.081111 -115.138189 312 2188ft 0kts
12-May-18 10:27 36.081111 -115.138189 312 2188ft 0kts
12-May-18 10:28 36.081111 -115.138189 312 2188ft 0kts
12-May-18 10:29 36.081111 -115.138189 312 2188ft 0kts
12-May-18 10:30 36.081111 -115.138189 312 2188ft 0kts
12-May-18 10:31 36.081111 -115.138189 312 2188ft 0kts
12-May-18 10:32 36.081111 -115.138189 312 2188ft 0kts
12-May-18 10:33 36.080941 -115.137962 312 2188ft 2kts
12-May-18 10:34 36.080502 -115.137374 312 2188ft 2kts
12-May-18 10:35 36.080463 -115.137322 312 2188ft 0kts
12-May-18 10:36 36.080463 -115.137322 312 2188ft 0kts
12-May-18 10:37 36.080022 -115.137237 135 2188ft 4kts
12-May-18 10:38 36.078703 -115.135613 134 2188ft 14kts
12-May-18 10:39 36.078300 -115.131086 90 2188ft 15kts
12-May-18 10:40 36.078288 -115.124820 91 2188ft 15kts
12-May-18 10:41 36.076455 -115.121626 258 2188ft 10kts
12-May-18 10:42 36.076505 -115.166163 269 3424ft 165kts
12-May-18 10:43 36.075693 -115.233636 259 5184ft 242kts
12-May-18 10:44 36.028345 -115.276848 193 6933ft 286kts
12-May-18 10:45 35.952019 -115.304323 188 7345ft 290kts
12-May-18 10:46 35.870600 -115.313563 187 11227ft 301kts
12-May-18 10:47 35.777293 -115.306157 178 13629ft 360kts
12-May-18 10:48 35.676917 -115.294859 183 17316ft 363kts
12-May-18 10:49 35.575530 -115.298618 188 20418ft 369kts
12-May-18 10:50 35.477287 -115.325519 210 22754ft 365kts
12-May-18 10:51 35.388499 -115.387315 214 24270ft 367kts
12-May-18 10:52 35.298859 -115.452104 214 25976ft 380kts
12-May-18 10:53 35.206543 -115.518776 214 27641ft 388kts
12-May-18 10:54 35.116748 -115.591564 225 27937ft 383kts
12-May-18 10:55 35.042284 -115.684197 227 27946ft 383kts
12-May-18 10:56 34.968432 -115.778101 228 27952ft 385kts
12-May-18 10:57 34.894048 -115.872762 228 27958ft 386kts
12-May-18 10:58 34.819829 -115.967701 228 27964ft 388kts
12-May-18 10:59 34.744629 -116.063398 228 27966ft 392kts
12-May-18 11:00 34.669217 -116.159009 228 27973ft 393kts
12-May-18 11:01 34.593599 -116.254901 228 27990ft 394kts
12-May-18 11:02 34.517277 -116.351031 228 27995ft 395kts
12-May-18 11:03 34.441171 -116.446781 230 27996ft 394kts
12-May-18 11:04 34.383548 -116.558259 243 28009ft 391kts
12-May-18 11:05 34.335256 -116.675112 244 28025ft 376kts
12-May-18 11:06 34.290427 -116.786893 244 27368ft 361kts
12-May-18 11:07 34.246895 -116.894634 244 25159ft 350kts
12-May-18 11:08 34.206331 -116.999737 251 22918ft 342kts
12-May-18 11:09 34.177326 -117.107940 252 20701ft 334kts
12-May-18 11:10 34.148717 -117.213003 252 18731ft 321kts
12-May-18 11:11 34.121064 -117.313219 252 16775ft 311kts
12-May-18 11:12 34.094674 -117.412368 254 14864ft 316kts
12-May-18 11:13 34.068133 -117.514871 250 13346ft 311kts
12-May-18 11:14 34.033205 -117.610187 248 11293ft 312kts
12-May-18 11:15 34.003385 -117.705677 262 10114ft 285kts
12-May-18 11:16 33.995629 -117.798882 264 8923ft 281kts
12-May-18 11:17 33.986637 -117.890566 264 7167ft 271kts
12-May-18 11:18 33.978419 -117.980266 263 5669ft 266kts
12-May-18 11:19 33.970124 -118.062451 262 5072ft 229kts
12-May-18 11:20 33.962971 -118.132470 262 4179ft 196kts
12-May-18 11:21 33.956568 -118.195076 261 3179ft 183kts
12-May-18 11:22 33.950476 -118.254619 261 2234ft 170kts
12-May-18 11:23 33.944978 -118.308371 261 1392ft 150kts
12-May-18 11:24 33.940140 -118.356228 261 581ft 142kts
12-May-18 11:25 33.935843 -118.397633 262 134ft 55kts
12-May-18 11:26 33.936121 -118.403375 291 134ft 0kts
12-May-18 11:27 33.936015 -118.408459 294 134ft 15kts
12-May-18 11:28 33.938560 -118.409169 48 134ft 12kts
12-May-18 11:29 33.939148 -118.404710 81 134ft 12kts
12-May-18 11:30 33.941420 -118.403380 351 134ft 10kts
12-May-18 11:31 33.942052 -118.404109 259 134ft 0kts
12-May-18 11:32 33.942052 -118.404109 259 134ft 0kts
12-May-18 11:33 33.942052 -118.404109 259 134ft 0kts
12-May-18 11:34 33.942052 -118.404109 259 134ft 0kts
12-May-18 11:35 33.942052 -118.404109 259 134ft 0kts
12-May-18 11:36 33.942052 -118.404109 259 134ft 0kts
12-May-18 11:37 33.942052 -118.404109 259 134ft 0kts
12-May-18 11:38 33.942052 -118.404109 259 134ft 0kts

Navigation Log

Ident Type
Flight plan parsing failed, navigation log unavailable